sensor_id;sensor_type;location;lat;lon;timestamp;pressure;altitude;pressure_sealevel;temperature;humidity
62725;BME280;49026;52.600;4.694;2023-07-13T00:00:17;101279.63;;;16.29;66.95
62725;BME280;49026;52.600;4.694;2023-07-13T00:02:43;101278.31;;;16.37;67.54
62725;BME280;49026;52.600;4.694;2023-07-13T00:05:09;101276.09;;;16.45;67.76
62725;BME280;49026;52.600;4.694;2023-07-13T00:07:35;101272.13;;;16.52;67.72
62725;BME280;49026;52.600;4.694;2023-07-13T00:10:01;101281.38;;;16.61;67.73
62725;BME280;49026;52.600;4.694;2023-07-13T00:12:36;101278.25;;;16.68;68.35
62725;BME280;49026;52.600;4.694;2023-07-13T00:15:05;101276.16;;;16.74;68.11
62725;BME280;49026;52.600;4.694;2023-07-13T00:17:32;101277.53;;;16.81;68.42
62725;BME280;49026;52.600;4.694;2023-07-13T00:19:57;101283.53;;;16.84;68.27
62725;BME280;49026;52.600;4.694;2023-07-13T00:22:24;101272.75;;;16.88;68.24
62725;BME280;49026;52.600;4.694;2023-07-13T00:24:53;101282.31;;;16.90;68.42
62725;BME280;49026;52.600;4.694;2023-07-13T00:27:21;101282.13;;;16.93;68.97
62725;BME280;49026;52.600;4.694;2023-07-13T00:29:46;101284.03;;;16.91;68.96
62725;BME280;49026;52.600;4.694;2023-07-13T00:32:12;101290.44;;;16.87;68.75
62725;BME280;49026;52.600;4.694;2023-07-13T00:34:38;101285.50;;;16.81;68.67
62725;BME280;49026;52.600;4.694;2023-07-13T00:37:06;101277.88;;;16.75;68.63
62725;BME280;49026;52.600;4.694;2023-07-13T00:39:35;101288.00;;;16.68;68.26
62725;BME280;49026;52.600;4.694;2023-07-13T00:42:02;101282.22;;;16.61;68.27
62725;BME280;49026;52.600;4.694;2023-07-13T00:44:27;101289.75;;;16.53;67.97
62725;BME280;49026;52.600;4.694;2023-07-13T00:46:53;101285.59;;;16.49;68.66
62725;BME280;49026;52.600;4.694;2023-07-13T00:49:25;101285.84;;;16.44;68.17
62725;BME280;49026;52.600;4.694;2023-07-13T00:51:55;101280.03;;;16.38;68.19
62725;BME280;49026;52.600;4.694;2023-07-13T00:54:26;101281.94;;;16.36;68.61
62725;BME280;49026;52.600;4.694;2023-07-13T00:56:55;101285.53;;;16.35;68.52
62725;BME280;49026;52.600;4.694;2023-07-13T00:59:22;101288.34;;;16.32;68.22
62725;BME280;49026;52.600;4.694;2023-07-13T01:01:48;101284.00;;;16.30;68.30
62725;BME280;49026;52.600;4.694;2023-07-13T01:04:14;101287.56;;;16.29;68.61
62725;BME280;49026;52.600;4.694;2023-07-13T01:06:40;101287.84;;;16.25;68.10
62725;BME280;49026;52.600;4.694;2023-07-13T01:09:07;101287.16;;;16.21;68.30
62725;BME280;49026;52.600;4.694;2023-07-13T01:11:35;101281.09;;;16.19;68.51
62725;BME280;49026;52.600;4.694;2023-07-13T01:14:04;101281.94;;;16.20;69.14
62725;BME280;49026;52.600;4.694;2023-07-13T01:16:33;101277.69;;;16.17;68.93
62725;BME280;49026;52.600;4.694;2023-07-13T01:18:59;101275.28;;;16.13;68.61
62725;BME280;49026;52.600;4.694;2023-07-13T01:21:29;101278.03;;;16.11;68.78
62725;BME280;49026;52.600;4.694;2023-07-13T01:23:55;101285.00;;;16.12;69.09
62725;BME280;49026;52.600;4.694;2023-07-13T01:26:21;101285.00;;;16.12;69.08
62725;BME280;49026;52.600;4.694;2023-07-13T01:28:47;101276.47;;;16.07;68.76
62725;BME280;49026;52.600;4.694;2023-07-13T01:31:12;101281.16;;;16.02;68.47
62725;BME280;49026;52.600;4.694;2023-07-13T01:33:39;101286.75;;;15.97;68.86
62725;BME280;49026;52.600;4.694;2023-07-13T01:36:10;101287.78;;;15.95;69.36
62725;BME280;49026;52.600;4.694;2023-07-13T01:38:36;101282.38;;;15.96;69.80
62725;BME280;49026;52.600;4.694;2023-07-13T01:41:03;101288.63;;;15.95;69.77
62725;BME280;49026;52.600;4.694;2023-07-13T01:43:29;101283.31;;;15.95;69.73
62725;BME280;49026;52.600;4.694;2023-07-13T01:45:54;101280.75;;;15.93;70.05
62725;BME280;49026;52.600;4.694;2023-07-13T01:48:20;101284.53;;;15.89;70.04
62725;BME280;49026;52.600;4.694;2023-07-13T01:50:46;101289.06;;;15.87;69.89
62725;BME280;49026;52.600;4.694;2023-07-13T01:53:12;101284.00;;;15.83;70.23
62725;BME280;49026;52.600;4.694;2023-07-13T01:55:38;101298.09;;;15.83;70.46
62725;BME280;49026;52.600;4.694;2023-07-13T01:58:03;101290.16;;;15.83;70.65
62725;BME280;49026;52.600;4.694;2023-07-13T02:00:29;101292.63;;;15.86;70.73
62725;BME280;49026;52.600;4.694;2023-07-13T02:02:54;101303.31;;;15.85;70.39
62725;BME280;49026;52.600;4.694;2023-07-13T02:05:20;101293.75;;;15.82;69.90
62725;BME280;49026;52.600;4.694;2023-07-13T02:07:46;101298.09;;;15.83;70.20
62725;BME280;49026;52.600;4.694;2023-07-13T02:10:11;101294.53;;;15.84;70.11
62725;BME280;49026;52.600;4.694;2023-07-13T02:12:37;101290.91;;;15.85;69.93
62725;BME280;49026;52.600;4.694;2023-07-13T02:15:04;101296.84;;;15.90;70.65
62725;BME280;49026;52.600;4.694;2023-07-13T02:17:29;101304.59;;;15.93;70.16
62725;BME280;49026;52.600;4.694;2023-07-13T02:19:55;101294.78;;;15.96;70.64
62725;BME280;49026;52.600;4.694;2023-07-13T02:22:21;101301.78;;;15.97;70.69
62725;BME280;49026;52.600;4.694;2023-07-13T02:24:49;101301.88;;;15.95;70.46
62725;BME280;49026;52.600;4.694;2023-07-13T02:27:15;101316.84;;;15.96;70.51
62725;BME280;49026;52.600;4.694;2023-07-13T02:29:41;101311.53;;;15.96;71.09
62725;BME280;49026;52.600;4.694;2023-07-13T02:32:07;101316.91;;;15.95;70.68
62725;BME280;49026;52.600;4.694;2023-07-13T02:34:33;101318.72;;;15.94;71.05
62725;BME280;49026;52.600;4.694;2023-07-13T02:37:01;101317.00;;;15.93;71.50
62725;BME280;49026;52.600;4.694;2023-07-13T02:39:26;101322.53;;;15.88;70.93
62725;BME280;49026;52.600;4.694;2023-07-13T02:41:54;101318.22;;;15.87;71.29
62725;BME280;49026;52.600;4.694;2023-07-13T02:44:20;101322.47;;;15.90;71.09
62725;BME280;49026;52.600;4.694;2023-07-13T02:46:48;101316.31;;;15.89;70.80
62725;BME280;49026;52.600;4.694;2023-07-13T02:49:13;101320.69;;;15.90;70.77
62725;BME280;49026;52.600;4.694;2023-07-13T02:51:38;101317.09;;;15.91;70.55
62725;BME280;49026;52.600;4.694;2023-07-13T02:54:04;101316.06;;;15.94;70.72
62725;BME280;49026;52.600;4.694;2023-07-13T02:56:31;101316.66;;;15.99;71.39
62725;BME280;49026;52.600;4.694;2023-07-13T02:58:58;101314.53;;;16.06;71.37
62725;BME280;49026;52.600;4.694;2023-07-13T03:01:23;101319.69;;;16.09;71.33
62725;BME280;49026;52.600;4.694;2023-07-13T03:03:50;101322.13;;;16.12;71.13
62725;BME280;49026;52.600;4.694;2023-07-13T03:06:17;101306.06;;;16.15;71.40
62725;BME280;49026;52.600;4.694;2023-07-13T03:08:45;101320.78;;;16.21;71.57
62725;BME280;49026;52.600;4.694;2023-07-13T03:11:14;101323.34;;;16.22;71.33
62725;BME280;49026;52.600;4.694;2023-07-13T03:13:41;101315.47;;;16.21;71.00
62725;BME280;49026;52.600;4.694;2023-07-13T03:16:07;101320.00;;;16.19;71.17
62725;BME280;49026;52.600;4.694;2023-07-13T03:18:36;101331.47;;;16.19;71.92
62725;BME280;49026;52.600;4.694;2023-07-13T03:21:05;101323.50;;;16.19;71.98
62725;BME280;49026;52.600;4.694;2023-07-13T03:23:31;101324.53;;;16.17;71.53
62725;BME280;49026;52.600;4.694;2023-07-13T03:26:09;101324.91;;;16.10;71.55
62725;BME280;49026;52.600;4.694;2023-07-13T03:28:35;101320.78;;;16.05;71.46
62725;BME280;49026;52.600;4.694;2023-07-13T03:31:03;101326.22;;;16.02;71.54
62725;BME280;49026;52.600;4.694;2023-07-13T03:33:29;101330.69;;;16.01;72.02
62725;BME280;49026;52.600;4.694;2023-07-13T03:35:55;101336.16;;;15.98;71.58
62725;BME280;49026;52.600;4.694;2023-07-13T03:38:23;101332.66;;;15.98;71.63
62725;BME280;49026;52.600;4.694;2023-07-13T03:40:48;101337.28;;;15.94;71.58
62725;BME280;49026;52.600;4.694;2023-07-13T03:43:14;101324.34;;;15.88;71.26
62725;BME280;49026;52.600;4.694;2023-07-13T03:45:42;101329.91;;;15.83;71.23
62725;BME280;49026;52.600;4.694;2023-07-13T03:48:08;101321.94;;;15.83;71.52
62725;BME280;49026;52.600;4.694;2023-07-13T03:50:34;101322.81;;;15.84;71.43
62725;BME280;49026;52.600;4.694;2023-07-13T03:53:02;101332.31;;;15.88;71.80
62725;BME280;49026;52.600;4.694;2023-07-13T03:55:27;101334.09;;;15.87;71.33
62725;BME280;49026;52.600;4.694;2023-07-13T03:57:58;101338.44;;;15.88;71.38
62725;BME280;49026;52.600;4.694;2023-07-13T04:00:24;101331.28;;;15.90;71.45
62725;BME280;49026;52.600;4.694;2023-07-13T04:02:52;101339.84;;;15.96;71.40
62725;BME280;49026;52.600;4.694;2023-07-13T04:05:18;101340.44;;;16.01;71.37
62725;BME280;49026;52.600;4.694;2023-07-13T04:07:43;101339.16;;;16.08;71.58
62725;BME280;49026;52.600;4.694;2023-07-13T04:10:09;101343.97;;;16.17;71.86
62725;BME280;49026;52.600;4.694;2023-07-13T04:12:34;101343.34;;;16.28;71.97
62725;BME280;49026;52.600;4.694;2023-07-13T04:15:04;101345.38;;;16.39;71.97
62725;BME280;49026;52.600;4.694;2023-07-13T04:17:30;101341.97;;;16.53;72.38
62725;BME280;49026;52.600;4.694;2023-07-13T04:19:55;101345.72;;;16.64;72.19
62725;BME280;49026;52.600;4.694;2023-07-13T04:22:21;101346.13;;;16.73;72.24
62725;BME280;49026;52.600;4.694;2023-07-13T04:24:46;101351.84;;;16.81;72.33
62725;BME280;49026;52.600;4.694;2023-07-13T04:27:11;101348.97;;;17.00;72.52
62725;BME280;49026;52.600;4.694;2023-07-13T04:29:37;101355.31;;;17.28;72.77
62725;BME280;49026;52.600;4.694;2023-07-13T04:32:02;101359.25;;;17.51;72.92
62725;BME280;49026;52.600;4.694;2023-07-13T04:34:30;101362.63;;;17.67;72.31
62725;BME280;49026;52.600;4.694;2023-07-13T04:36:56;101364.00;;;17.74;72.65
62725;BME280;49026;52.600;4.694;2023-07-13T04:39:23;101357.25;;;17.83;72.65
62725;BME280;49026;52.600;4.694;2023-07-13T04:41:51;101362.47;;;17.99;72.72
62725;BME280;49026;52.600;4.694;2023-07-13T04:44:16;101367.13;;;17.95;72.73
62725;BME280;49026;52.600;4.694;2023-07-13T04:46:42;101370.19;;;17.89;72.54
62725;BME280;49026;52.600;4.694;2023-07-13T04:49:07;101369.88;;;17.80;72.81
62725;BME280;49026;52.600;4.694;2023-07-13T04:51:35;101372.34;;;17.68;72.73
62725;BME280;49026;52.600;4.694;2023-07-13T04:54:03;101368.53;;;17.58;72.93
62725;BME280;49026;52.600;4.694;2023-07-13T04:56:30;101362.84;;;17.50;72.76
62725;BME280;49026;52.600;4.694;2023-07-13T04:58:55;101365.84;;;17.44;72.63
62725;BME280;49026;52.600;4.694;2023-07-13T05:01:23;101375.91;;;17.38;72.74
62725;BME280;49026;52.600;4.694;2023-07-13T05:03:50;101381.56;;;17.32;72.51
62725;BME280;49026;52.600;4.694;2023-07-13T05:06:15;101377.41;;;17.28;72.56
62725;BME280;49026;52.600;4.694;2023-07-13T05:08:40;101383.75;;;17.26;72.50
62725;BME280;49026;52.600;4.694;2023-07-13T05:11:09;101392.59;;;17.26;72.79
62725;BME280;49026;52.600;4.694;2023-07-13T05:13:37;101389.19;;;17.24;72.72
62725;BME280;49026;52.600;4.694;2023-07-13T05:16:04;101394.56;;;17.22;72.47
62725;BME280;49026;52.600;4.694;2023-07-13T05:18:34;101395.44;;;17.23;72.63
62725;BME280;49026;52.600;4.694;2023-07-13T05:21:06;101394.66;;;17.21;72.42
62725;BME280;49026;52.600;4.694;2023-07-13T05:23:32;101407.84;;;17.22;72.39
62725;BME280;49026;52.600;4.694;2023-07-13T05:25:58;101404.25;;;17.23;72.40
62725;BME280;49026;52.600;4.694;2023-07-13T05:28:25;101405.28;;;17.21;72.41
62725;BME280;49026;52.600;4.694;2023-07-13T05:30:51;101413.25;;;17.21;72.34
62725;BME280;49026;52.600;4.694;2023-07-13T05:33:17;101420.25;;;17.22;72.77
62725;BME280;49026;52.600;4.694;2023-07-13T05:35:45;101420.44;;;17.19;72.52
62725;BME280;49026;52.600;4.694;2023-07-13T05:38:13;101407.16;;;17.19;72.55
62725;BME280;49026;52.600;4.694;2023-07-13T05:40:38;101412.47;;;17.19;72.49
62725;BME280;49026;52.600;4.694;2023-07-13T05:43:04;101408.97;;;17.18;72.33
62725;BME280;49026;52.600;4.694;2023-07-13T05:45:30;101415.13;;;17.19;72.39
62725;BME280;49026;52.600;4.694;2023-07-13T05:47:55;101423.88;;;17.21;72.78
62725;BME280;49026;52.600;4.694;2023-07-13T05:50:20;101425.47;;;17.23;72.49
62725;BME280;49026;52.600;4.694;2023-07-13T05:52:46;101427.28;;;17.23;72.41
62725;BME280;49026;52.600;4.694;2023-07-13T05:55:12;101430.44;;;17.30;72.13
62725;BME280;49026;52.600;4.694;2023-07-13T05:57:37;101427.44;;;17.36;72.11
62725;BME280;49026;52.600;4.694;2023-07-13T06:00:03;101430.56;;;17.43;71.82
62725;BME280;49026;52.600;4.694;2023-07-13T06:02:28;101432.19;;;17.45;72.24
62725;BME280;49026;52.600;4.694;2023-07-13T06:04:56;101442.72;;;17.47;72.28
62725;BME280;49026;52.600;4.694;2023-07-13T06:07:21;101439.03;;;17.49;72.19
62725;BME280;49026;52.600;4.694;2023-07-13T06:09:47;101441.97;;;17.59;72.82
62725;BME280;49026;52.600;4.694;2023-07-13T06:12:12;101433.91;;;17.60;72.21
62725;BME280;49026;52.600;4.694;2023-07-13T06:14:38;101440.75;;;17.65;72.26
62725;BME280;49026;52.600;4.694;2023-07-13T06:17:03;101445.03;;;17.67;72.05
62725;BME280;49026;52.600;4.694;2023-07-13T06:19:29;101445.03;;;17.67;72.12
62725;BME280;49026;52.600;4.694;2023-07-13T06:21:54;101453.69;;;17.71;72.02
62725;BME280;49026;52.600;4.694;2023-07-13T06:24:20;101442.56;;;17.78;72.10
62725;BME280;49026;52.600;4.694;2023-07-13T06:26:48;101449.34;;;17.84;71.85
62725;BME280;49026;52.600;4.694;2023-07-13T06:29:13;101465.81;;;17.91;71.95
62725;BME280;49026;52.600;4.694;2023-07-13T06:31:39;101461.06;;;17.96;71.75
62725;BME280;49026;52.600;4.694;2023-07-13T06:34:04;101457.72;;;17.92;71.46
62725;BME280;49026;52.600;4.694;2023-07-13T06:36:29;101466.31;;;17.82;71.54
62725;BME280;49026;52.600;4.694;2023-07-13T06:38:57;101473.53;;;17.80;71.77
62725;BME280;49026;52.600;4.694;2023-07-13T06:41:22;101471.16;;;17.75;71.46
62725;BME280;49026;52.600;4.694;2023-07-13T06:43:52;101475.97;;;17.68;71.48
62725;BME280;49026;52.600;4.694;2023-07-13T06:46:22;101492.28;;;17.62;71.22
62725;BME280;49026;52.600;4.694;2023-07-13T06:48:49;101492.47;;;17.59;71.20
62725;BME280;49026;52.600;4.694;2023-07-13T06:51:17;101494.75;;;17.51;71.26
62725;BME280;49026;52.600;4.694;2023-07-13T06:53:42;101504.19;;;17.40;70.97
62725;BME280;49026;52.600;4.694;2023-07-13T06:56:10;101497.69;;;17.30;70.73
62725;BME280;49026;52.600;4.694;2023-07-13T06:58:38;101510.22;;;17.28;71.00
62725;BME280;49026;52.600;4.694;2023-07-13T07:01:04;101504.56;;;17.34;71.10
62725;BME280;49026;52.600;4.694;2023-07-13T07:03:30;101502.00;;;17.47;70.92
62725;BME280;49026;52.600;4.694;2023-07-13T07:06:12;101501.88;;;17.65;70.58
62725;BME280;49026;52.600;4.694;2023-07-13T07:08:38;101507.34;;;17.77;70.57
62725;BME280;49026;52.600;4.694;2023-07-13T07:11:03;101507.94;;;17.97;70.71
62725;BME280;49026;52.600;4.694;2023-07-13T07:13:32;101515.78;;;18.14;70.54
62725;BME280;49026;52.600;4.694;2023-07-13T07:15:57;101521.25;;;18.26;70.55
62725;BME280;49026;52.600;4.694;2023-07-13T07:18:28;101523.19;;;18.38;70.74
62725;BME280;49026;52.600;4.694;2023-07-13T07:20:53;101519.00;;;18.48;70.53
62725;BME280;49026;52.600;4.694;2023-07-13T07:23:19;101519.53;;;18.68;70.45
62725;BME280;49026;52.600;4.694;2023-07-13T07:25:44;101528.34;;;18.97;70.52
62725;BME280;49026;52.600;4.694;2023-07-13T07:28:11;101525.09;;;19.34;70.73
62725;BME280;49026;52.600;4.694;2023-07-13T07:30:37;101524.50;;;19.83;71.26
62725;BME280;49026;52.600;4.694;2023-07-13T07:33:08;101527.38;;;20.31;71.13
62725;BME280;49026;52.600;4.694;2023-07-13T07:35:34;101530.63;;;20.48;70.58
62725;BME280;49026;52.600;4.694;2023-07-13T07:37:59;101523.28;;;20.51;70.97
62725;BME280;49026;52.600;4.694;2023-07-13T07:40:24;101525.97;;;20.51;70.94
62725;BME280;49026;52.600;4.694;2023-07-13T07:42:52;101520.38;;;20.67;70.99
62725;BME280;49026;52.600;4.694;2023-07-13T07:45:20;101521.34;;;21.03;71.75
62725;BME280;49026;52.600;4.694;2023-07-13T07:47:46;101519.06;;;21.34;72.02
62725;BME280;49026;52.600;4.694;2023-07-13T07:50:12;101516.25;;;21.60;71.47
62725;BME280;49026;52.600;4.694;2023-07-13T07:52:37;101520.75;;;21.59;71.68
62725;BME280;49026;52.600;4.694;2023-07-13T07:55:04;101519.69;;;21.62;69.29
62725;BME280;49026;52.600;4.694;2023-07-13T07:57:33;101526.94;;;21.49;69.18
62725;BME280;49026;52.600;4.694;2023-07-13T07:59:59;101525.13;;;21.36;69.38
62725;BME280;49026;52.600;4.694;2023-07-13T08:02:25;101528.13;;;21.20;69.07
62725;BME280;49026;52.600;4.694;2023-07-13T08:04:53;101526.44;;;21.06;68.54
62725;BME280;49026;52.600;4.694;2023-07-13T08:07:18;101519.97;;;20.98;67.72
62725;BME280;49026;52.600;4.694;2023-07-13T08:09:52;101523.03;;;20.80;67.47
62725;BME280;49026;52.600;4.694;2023-07-13T08:12:17;101521.03;;;20.71;67.84
62725;BME280;49026;52.600;4.694;2023-07-13T08:14:43;101528.47;;;20.79;68.28
62725;BME280;49026;52.600;4.694;2023-07-13T08:17:10;101540.63;;;20.83;67.60
62725;BME280;49026;52.600;4.694;2023-07-13T08:19:38;101533.41;;;20.72;67.53
62725;BME280;49026;52.600;4.694;2023-07-13T08:22:03;101536.19;;;20.70;66.74
62725;BME280;49026;52.600;4.694;2023-07-13T08:24:29;101529.78;;;20.60;67.79
62725;BME280;49026;52.600;4.694;2023-07-13T08:26:59;101536.31;;;20.69;68.10
62725;BME280;49026;52.600;4.694;2023-07-13T08:29:24;101533.94;;;21.01;68.86
62725;BME280;49026;52.600;4.694;2023-07-13T08:31:50;101540.78;;;21.29;69.23
62725;BME280;49026;52.600;4.694;2023-07-13T08:34:15;101538.72;;;21.33;68.68
62725;BME280;49026;52.600;4.694;2023-07-13T08:36:40;101543.06;;;21.23;67.68
62725;BME280;49026;52.600;4.694;2023-07-13T08:39:06;101549.94;;;21.14;67.40
62725;BME280;49026;52.600;4.694;2023-07-13T08:41:32;101544.63;;;21.01;67.47
62725;BME280;49026;52.600;4.694;2023-07-13T08:43:59;101553.16;;;21.06;67.52
62725;BME280;49026;52.600;4.694;2023-07-13T08:49:01;101557.22;;;21.12;66.43
62725;BME280;49026;52.600;4.694;2023-07-13T08:54:22;101558.09;;;21.00;65.47
62725;BME280;49026;52.600;4.694;2023-07-13T08:56:50;101555.41;;;20.76;66.18
62725;BME280;49026;52.600;4.694;2023-07-13T08:59:21;101561.06;;;20.84;66.83
62725;BME280;49026;52.600;4.694;2023-07-13T09:04:45;101567.25;;;20.84;66.30
62725;BME280;49026;52.600;4.694;2023-07-13T09:07:24;101573.56;;;20.58;66.48
62725;BME280;49026;52.600;4.694;2023-07-13T09:10:16;101564.81;;;20.43;66.61
62725;BME280;49026;52.600;4.694;2023-07-13T09:15:46;101564.03;;;20.92;67.43
62725;BME280;49026;52.600;4.694;2023-07-13T09:21:13;101557.66;;;21.06;66.75
62725;BME280;49026;52.600;4.694;2023-07-13T09:23:40;101571.06;;;20.93;67.45
62725;BME280;49026;52.600;4.694;2023-07-13T09:26:15;101565.56;;;21.07;68.04
62725;BME280;49026;52.600;4.694;2023-07-13T09:28:45;101570.88;;;21.44;67.65
62725;BME280;49026;52.600;4.694;2023-07-13T09:31:19;101569.84;;;21.82;67.79
62725;BME280;49026;52.600;4.694;2023-07-13T09:33:47;101573.88;;;21.99;67.38
62725;BME280;49026;52.600;4.694;2023-07-13T09:36:33;101574.84;;;21.98;65.74
62725;BME280;49026;52.600;4.694;2023-07-13T09:39:39;101581.03;;;21.88;65.42
62725;BME280;49026;52.600;4.694;2023-07-13T09:42:17;101580.81;;;21.91;66.07
62725;BME280;49026;52.600;4.694;2023-07-13T09:44:53;101587.44;;;21.85;65.75
62725;BME280;49026;52.600;4.694;2023-07-13T09:47:24;101587.66;;;21.71;66.44
62725;BME280;49026;52.600;4.694;2023-07-13T09:50:08;101591.06;;;21.73;66.21
62725;BME280;49026;52.600;4.694;2023-07-13T09:52:45;101590.91;;;21.63;64.76
62725;BME280;49026;52.600;4.694;2023-07-13T09:57:58;101589.75;;;21.78;65.75
62725;BME280;49026;52.600;4.694;2023-07-13T10:00:29;101591.03;;;21.97;64.98
62725;BME280;49026;52.600;4.694;2023-07-13T10:03:52;101597.38;;;22.07;63.37
62725;BME280;49026;52.600;4.694;2023-07-13T10:05:50;101593.56;;;21.98;63.97
62725;BME280;49026;52.600;4.694;2023-07-13T10:08:18;101601.97;;;21.94;63.80
62725;BME280;49026;52.600;4.694;2023-07-13T10:10:45;101596.47;;;21.84;62.65
62725;BME280;49026;52.600;4.694;2023-07-13T10:13:35;101614.75;;;21.90;64.77
62725;BME280;49026;52.600;4.694;2023-07-13T10:16:06;101611.50;;;22.09;63.26
62725;BME280;49026;52.600;4.694;2023-07-13T10:21:15;101616.50;;;21.78;62.47
62725;BME280;49026;52.600;4.694;2023-07-13T10:23:42;101614.75;;;21.66;63.35
62725;BME280;49026;52.600;4.694;2023-07-13T10:26:22;101631.13;;;21.86;63.95
62725;BME280;49026;52.600;4.694;2023-07-13T10:28:53;101629.63;;;22.06;63.62
62725;BME280;49026;52.600;4.694;2023-07-13T10:31:21;101622.09;;;22.11;63.05
62725;BME280;49026;52.600;4.694;2023-07-13T10:33:47;101643.78;;;22.19;62.22
62725;BME280;49026;52.600;4.694;2023-07-13T10:36:17;101635.75;;;22.19;62.93
62725;BME280;49026;52.600;4.694;2023-07-13T10:38:46;101638.41;;;22.19;62.46
62725;BME280;49026;52.600;4.694;2023-07-13T10:41:22;101643.16;;;22.15;61.34
62725;BME280;49026;52.600;4.694;2023-07-13T10:43:56;101649.44;;;22.03;61.42
62725;BME280;49026;52.600;4.694;2023-07-13T10:46:25;101654.03;;;22.01;61.11
62725;BME280;49026;52.600;4.694;2023-07-13T10:48:58;101657.94;;;22.08;61.49
62725;BME280;49026;52.600;4.694;2023-07-13T10:51:25;101661.69;;;22.30;62.75
62725;BME280;49026;52.600;4.694;2023-07-13T10:59:47;101660.50;;;22.45;61.69
62725;BME280;49026;52.600;4.694;2023-07-13T11:02:33;101670.06;;;22.61;62.49
62725;BME280;49026;52.600;4.694;2023-07-13T11:05:16;101671.50;;;22.65;60.52
62725;BME280;49026;52.600;4.694;2023-07-13T11:10:56;101674.56;;;22.71;61.67
62725;BME280;49026;52.600;4.694;2023-07-13T11:18:48;101685.50;;;22.57;60.37
62725;BME280;49026;52.600;4.694;2023-07-13T11:21:16;101667.81;;;22.43;61.21
62725;BME280;49026;52.600;4.694;2023-07-13T11:23:44;101680.00;;;22.47;60.95
62725;BME280;49026;52.600;4.694;2023-07-13T11:26:51;101677.19;;;22.37;60.73
62725;BME280;49026;52.600;4.694;2023-07-13T11:31:43;101673.66;;;22.37;59.77
62725;BME280;49026;52.600;4.694;2023-07-13T11:34:19;101674.63;;;22.12;59.56
62725;BME280;49026;52.600;4.694;2023-07-13T11:36:47;101674.94;;;21.96;59.62
62725;BME280;49026;52.600;4.694;2023-07-13T11:41:50;101691.16;;;22.30;60.26
62725;BME280;49026;52.600;4.694;2023-07-13T11:44:18;101690.69;;;22.36;60.22
62725;BME280;49026;52.600;4.694;2023-07-13T11:46:49;101686.06;;;22.38;60.86
62725;BME280;49026;52.600;4.694;2023-07-13T11:49:19;101674.41;;;22.50;59.74
62725;BME280;49026;52.600;4.694;2023-07-13T11:51:45;101689.25;;;22.54;60.38
62725;BME280;49026;52.600;4.694;2023-07-13T11:54:32;101680.28;;;22.89;60.32
62725;BME280;49026;52.600;4.694;2023-07-13T11:57:01;101691.50;;;23.06;59.29
62725;BME280;49026;52.600;4.694;2023-07-13T11:59:29;101671.03;;;22.71;57.95
62725;BME280;49026;52.600;4.694;2023-07-13T12:01:55;101689.16;;;22.20;58.04
62725;BME280;49026;52.600;4.694;2023-07-13T12:04:32;101698.53;;;21.91;58.68
62725;BME280;49026;52.600;4.694;2023-07-13T12:07:18;101692.53;;;21.63;58.01
62725;BME280;49026;52.600;4.694;2023-07-13T12:09:46;101694.59;;;21.59;59.11
62725;BME280;49026;52.600;4.694;2023-07-13T12:12:18;101685.59;;;21.84;59.12
62725;BME280;49026;52.600;4.694;2023-07-13T12:14:44;101686.66;;;22.06;58.89
62725;BME280;49026;52.600;4.694;2023-07-13T12:17:21;101699.06;;;22.31;59.16
62725;BME280;49026;52.600;4.694;2023-07-13T12:19:51;101695.84;;;22.62;58.67
62725;BME280;49026;52.600;4.694;2023-07-13T12:22:19;101686.13;;;22.83;58.38
62725;BME280;49026;52.600;4.694;2023-07-13T12:24:46;101689.53;;;22.74;57.77
62725;BME280;49026;52.600;4.694;2023-07-13T12:27:22;101694.41;;;22.69;57.75
62725;BME280;49026;52.600;4.694;2023-07-13T12:30:05;101695.03;;;22.84;57.28
62725;BME280;49026;52.600;4.694;2023-07-13T12:32:33;101701.09;;;22.74;57.46
62725;BME280;49026;52.600;4.694;2023-07-13T12:35:14;101702.44;;;22.69;57.33
62725;BME280;49026;52.600;4.694;2023-07-13T12:37:46;101697.78;;;22.60;57.39
62725;BME280;49026;52.600;4.694;2023-07-13T12:40:17;101690.25;;;22.65;56.93
62725;BME280;49026;52.600;4.694;2023-07-13T12:42:46;101696.97;;;22.70;57.27
62725;BME280;49026;52.600;4.694;2023-07-13T12:45:24;101699.31;;;22.98;57.80
62725;BME280;49026;52.600;4.694;2023-07-13T12:47:54;101694.41;;;23.25;56.46
62725;BME280;49026;52.600;4.694;2023-07-13T12:50:29;101695.38;;;23.02;55.66
62725;BME280;49026;52.600;4.694;2023-07-13T12:53:02;101690.66;;;22.94;56.34
62725;BME280;49026;52.600;4.694;2023-07-13T12:55:41;101698.69;;;22.94;56.47
62725;BME280;49026;52.600;4.694;2023-07-13T12:58:16;101694.31;;;23.27;56.92
62725;BME280;49026;52.600;4.694;2023-07-13T13:00:49;101700.41;;;23.18;55.48
62725;BME280;49026;52.600;4.694;2023-07-13T13:03:29;101710.06;;;23.09;56.37
62725;BME280;49026;52.600;4.694;2023-07-13T13:08:29;101696.38;;;23.01;57.38
62725;BME280;49026;52.600;4.694;2023-07-13T13:10:55;101697.47;;;23.32;56.44
62725;BME280;49026;52.600;4.694;2023-07-13T13:13:21;101704.66;;;23.43;56.22
62725;BME280;49026;52.600;4.694;2023-07-13T13:15:47;101705.88;;;23.39;56.02
62725;BME280;49026;52.600;4.694;2023-07-13T13:18:23;101706.25;;;23.11;55.45
62725;BME280;49026;52.600;4.694;2023-07-13T13:20:51;101700.75;;;22.90;56.19
62725;BME280;49026;52.600;4.694;2023-07-13T13:23:19;101698.94;;;22.91;56.25
62725;BME280;49026;52.600;4.694;2023-07-13T13:25:50;101704.44;;;23.12;56.33
62725;BME280;49026;52.600;4.694;2023-07-13T13:28:20;101698.69;;;23.28;56.16
62725;BME280;49026;52.600;4.694;2023-07-13T13:30:47;101711.84;;;23.42;55.41
62725;BME280;49026;52.600;4.694;2023-07-13T13:33:16;101710.75;;;23.34;55.53
62725;BME280;49026;52.600;4.694;2023-07-13T13:35:42;101707.09;;;23.35;55.53
62725;BME280;49026;52.600;4.694;2023-07-13T13:38:17;101708.81;;;23.36;55.39